Time;durP1;ratioP1;P1;durP2;ratioP2;P2;SDS_P1;SDS_P2;PMS_P1;PMS_P2;Temp;Humidity;BMP_temperature;BMP_pressure;BME280_temperature;BME280_humidity;BME280_pressure;Samples;Min_cycle;Max_cycle;Signal;HPM_P1;HPM_P2
2021/04/10 00:02:38;;;;;;;15.20;8.00;;;;;;;4.27;51.91;98632.04;238560;1201;23144;-70
2021/04/10 00:07:43;;;;;;;16.75;8.20;;;;;;;4.17;52.26;98631.13;238597;1200;26084;-70
2021/04/10 00:12:45;;;;;;;16.60;8.10;;;;;;;4.06;52.89;98628.38;238619;1199;23211;-70
2021/04/10 00:17:48;;;;;;;17.25;8.80;;;;;;;3.94;52.49;98630.36;238649;1199;23125;-69
2021/04/10 00:22:51;;;;;;;18.43;8.87;;;;;;;3.83;52.92;98625.99;238353;1202;23115;-70
2021/04/10 00:27:54;;;;;;;18.30;8.35;;;;;;;3.74;53.16;98623.78;238748;1198;23114;-70
2021/04/10 00:32:56;;;;;;;17.60;7.80;;;;;;;3.69;53.31;98614.97;238523;1202;23120;-71
2021/04/10 00:37:59;;;;;;;14.95;8.60;;;;;;;3.67;53.02;98620.52;238360;1202;23122;-73
2021/04/10 00:43:02;;;;;;;22.10;8.95;;;;;;;3.66;53.41;98623.41;238374;1200;23254;-71
2021/04/10 00:48:05;;;;;;;21.23;9.53;;;;;;;3.67;53.63;98614.42;238648;1199;23269;-70
2021/04/10 00:53:08;;;;;;;19.53;10.43;;;;;;;3.69;53.64;98609.67;238779;1200;23097;-68
2021/04/10 00:58:11;;;;;;;22.05;10.55;;;;;;;3.72;53.73;98617.12;238583;1200;23145;-69
2021/04/10 01:03:14;;;;;;;19.80;10.10;;;;;;;3.74;53.94;98613.17;238684;1200;23272;-70
2021/04/10 01:08:17;;;;;;;25.25;9.85;;;;;;;3.76;54.21;98607.63;238565;1199;23135;-71
2021/04/10 01:13:48;;;;;;;20.07;10.20;;;;;;;3.72;54.59;98609.17;238588;1200;23115;-69
2021/04/10 01:19:09;;;;;;;21.15;10.95;;;;;;;3.66;54.68;98599.57;238786;1199;27179;-69
2021/04/10 01:24:15;;;;;;;23.55;9.65;;;;;;;3.59;54.77;98600.55;238399;1200;23140;-70
2021/04/10 01:29:19;;;;;;;22.00;10.30;;;;;;;3.53;55.36;98598.09;239203;1200;23126;-70
2021/04/10 01:34:33;;;;;;;23.00;10.80;;;;;;;3.49;55.54;98600.42;238372;1202;23130;-70
2021/04/10 01:39:37;;;;;;;21.75;10.70;;;;;;;3.46;55.16;98590.33;238289;1200;23115;-70
2021/04/10 01:44:42;;;;;;;22.20;10.80;;;;;;;3.45;55.74;98596.66;238745;1197;23321;-70
2021/04/10 01:49:48;;;;;;;21.70;10.90;;;;;;;3.46;55.57;98594.84;238606;1200;23122;-70
2021/04/10 01:54:51;;;;;;;20.90;10.60;;;;;;;3.49;55.41;98584.53;238599;1198;26336;-70
2021/04/10 01:59:56;;;;;;;24.30;10.93;;;;;;;3.53;56.13;98579.56;238546;1201;23102;-70
2021/04/10 02:05:18;;;;;;;23.13;11.20;;;;;;;3.56;56.19;98573.77;238807;1203;23141;-70
2021/04/10 02:10:25;;;;;;;22.10;10.10;;;;;;;3.58;55.66;98576.95;238559;1200;26386;-70
2021/04/10 02:15:44;;;;;;;21.60;10.90;;;;;;;3.60;55.92;98569.58;238611;1200;23121;-72
2021/04/10 02:20:50;;;;;;;23.35;10.50;;;;;;;3.60;56.04;98572.22;238645;1203;23131;-70
2021/04/10 02:25:53;;;;;;;26.00;10.90;;;;;;;3.61;56.65;98579.13;238656;1200;23134;-69
2021/04/10 02:30:59;;;;;;;23.40;11.60;;;;;;;3.60;56.15;98577.52;238636;1203;23125;-69
2021/04/10 02:36:04;;;;;;;25.60;11.50;;;;;;;3.57;56.38;98570.86;238396;1202;23294;-70
2021/04/10 02:41:12;;;;;;;29.23;12.90;;;;;;;3.52;56.55;98562.06;238433;1198;23273;-69
2021/04/10 02:46:15;;;;;;;28.95;11.95;;;;;;;3.47;57.10;98560.16;238446;1200;23227;-70
2021/04/10 02:51:24;;;;;;;22.65;11.80;;;;;;;3.46;57.47;98566.50;238809;1198;23122;-70
2021/04/10 02:56:31;;;;;;;25.20;12.25;;;;;;;3.50;57.34;98564.95;238670;1199;23124;-69
2021/04/10 03:01:36;;;;;;;26.70;12.70;;;;;;;3.51;57.35;98569.22;238361;1202;23193;-70
2021/04/10 03:06:40;;;;;;;24.30;12.60;;;;;;;3.51;57.57;98569.22;238442;1200;23243;-69
2021/04/10 03:11:44;;;;;;;25.25;13.90;;;;;;;3.49;58.11;98562.56;238568;1200;23117;-70
2021/04/10 03:16:47;;;;;;;23.63;11.23;;;;;;;3.40;58.21;98560.34;238470;1199;23292;-69
2021/04/10 03:21:53;;;;;;;18.60;9.50;;;;;;;3.36;58.20;98564.52;238417;1200;27355;-71
2021/04/10 03:26:57;;;;;;;18.75;9.45;;;;;;;3.35;58.91;98564.77;239225;1199;23289;-70
2021/04/10 03:32:08;;;;;;;15.93;8.83;;;;;;;3.39;59.06;98568.53;238512;1199;26226;-70
2021/04/10 03:37:12;;;;;;;17.97;9.90;;;;;;;3.38;58.85;98572.22;238402;1200;24758;-69
2021/04/10 03:42:21;;;;;;;21.13;10.50;;;;;;;3.34;58.68;98561.30;238327;1200;23113;-70
2021/04/10 03:47:24;;;;;;;21.95;11.25;;;;;;;3.33;59.07;98566.85;238356;1202;23646;-69
2021/04/10 03:52:27;;;;;;;26.70;12.13;;;;;;;3.33;59.51;98564.20;238572;1200;23140;-70
2021/04/10 03:57:32;;;;;;;26.27;12.43;;;;;;;3.32;59.80;98567.92;239210;1202;23246;-70
2021/04/10 04:02:35;;;;;;;21.17;10.73;;;;;;;3.30;59.57;98570.00;238621;1199;23263;-70
2021/04/10 04:07:39;;;;;;;23.90;11.30;;;;;;;3.27;59.53;98567.84;238642;1200;23115;-70
2021/04/10 04:12:41;;;;;;;21.37;11.57;;;;;;;3.24;59.44;98585.80;238667;1199;23131;-69
2021/04/10 04:17:45;;;;;;;26.55;11.75;;;;;;;3.24;59.97;98577.86;238723;1200;26226;-70
2021/04/10 04:22:47;;;;;;;23.83;11.37;;;;;;;3.23;59.40;98580.75;238388;1202;23134;-71
2021/04/10 04:27:50;;;;;;;22.67;11.73;;;;;;;3.24;59.91;98575.21;238570;1200;23139;-70
2021/04/10 04:32:54;;;;;;;26.10;12.30;;;;;;;3.28;59.71;98582.69;238419;1200;23153;-70
2021/04/10 04:37:57;;;;;;;25.87;12.03;;;;;;;3.37;60.51;98595.27;238481;1200;23125;-71
2021/04/10 04:43:00;;;;;;;24.30;11.90;;;;;;;3.49;60.99;98595.13;238707;1200;23144;-69
2021/04/10 04:48:03;;;;;;;22.90;11.83;;;;;;;3.58;61.02;98593.66;238709;1199;23129;-72
2021/04/10 04:53:05;;;;;;;20.73;10.00;;;;;;;3.70;61.25;98595.38;238735;1202;23257;-70
2021/04/10 04:58:08;;;;;;;13.30;7.20;;;;;;;3.79;61.12;98593.88;238695;1200;23145;-73
2021/04/10 05:03:11;;;;;;;19.70;10.20;;;;;;;3.98;61.39;98606.83;238586;1200;23147;-70
2021/04/10 05:08:14;;;;;;;24.50;11.53;;;;;;;4.20;61.37;98601.48;238810;1200;23119;-71
2021/04/10 05:13:17;;;;;;;16.50;9.00;;;;;;;4.41;61.35;98613.08;238463;1200;23121;-69
2021/04/10 05:18:19;;;;;;;17.20;9.70;;;;;;;4.60;60.85;98613.48;238704;1202;26227;-70
2021/04/10 05:23:23;;;;;;;18.43;9.57;;;;;;;4.79;61.20;98619.23;238611;1199;23204;-69
2021/04/10 05:28:26;;;;;;;16.57;8.97;;;;;;;5.02;60.64;98635.84;238583;1201;23091;-69
2021/04/10 05:33:30;;;;;;;18.05;9.55;;;;;;;5.25;60.60;98630.16;238631;1199;23157;-70
2021/04/10 05:38:34;;;;;;;16.80;9.30;;;;;;;5.43;60.21;98630.80;238994;1199;23124;-70
2021/04/10 05:43:36;;;;;;;19.50;9.30;;;;;;;5.54;60.13;98644.91;238577;1199;23272;-70
2021/04/10 05:48:38;;;;;;;16.95;8.30;;;;;;;5.64;60.34;98650.30;238307;1202;23115;-70
2021/04/10 05:53:43;;;;;;;15.50;9.05;;;;;;;5.79;60.02;98653.02;238610;1202;23122;-69
2021/04/10 05:58:46;;;;;;;16.55;8.70;;;;;;;5.98;59.78;98661.34;238500;1200;23118;-70
2021/04/10 06:03:48;;;;;;;12.40;7.63;;;;;;;6.25;60.07;98652.38;238440;1200;23147;-70
2021/04/10 06:08:51;;;;;;;10.30;6.70;;;;;;;6.62;59.46;98658.59;238506;1200;23282;-71
2021/04/10 06:13:54;;;;;;;12.60;6.60;;;;;;;6.94;59.60;98668.98;238389;1199;23142;-70
2021/04/10 06:18:57;;;;;;;10.80;6.70;;;;;;;7.27;58.41;98674.80;238456;1200;23250;-70
2021/04/10 06:23:59;;;;;;;10.80;6.35;;;;;;;7.52;57.80;98665.16;238801;1201;23289;-70
2021/04/10 06:29:02;;;;;;;11.53;5.97;;;;;;;7.79;57.23;98659.49;238439;1198;23128;-69
2021/04/10 06:34:04;;;;;;;13.35;6.95;;;;;;;8.07;56.85;98662.55;238577;1202;23115;-69
2021/04/10 06:39:07;;;;;;;13.90;6.50;;;;;;;8.35;56.48;98658.42;238708;1202;23460;-70
2021/04/10 06:44:11;;;;;;;11.17;6.20;;;;;;;8.64;55.03;98659.59;238637;1200;23276;-70
2021/04/10 06:49:15;;;;;;;14.20;6.75;;;;;;;8.94;55.35;98655.90;238710;1200;23173;-70
2021/04/10 06:54:20;;;;;;;11.63;5.97;;;;;;;9.24;54.61;98654.80;239391;1200;23134;-69
2021/04/10 06:59:46;;;;;;;12.35;6.75;;;;;;;9.49;54.82;98658.31;238032;1199;23136;-70
2021/04/10 07:04:49;;;;;;;10.50;6.10;;;;;;;9.80;53.62;98674.02;238513;1198;23254;-71
2021/04/10 07:09:52;;;;;;;9.77;5.20;;;;;;;10.06;51.94;98666.48;239057;1202;23381;-71
2021/04/10 07:14:55;;;;;;;12.30;5.40;;;;;;;10.27;51.52;98664.33;238654;1200;23191;-68
2021/04/10 07:19:58;;;;;;;11.55;4.50;;;;;;;10.40;49.20;98665.52;238456;1198;23257;-70
2021/04/10 07:25:00;;;;;;;10.33;5.67;;;;;;;10.48;49.88;98665.95;239218;1199;23143;-70
2021/04/10 07:30:04;;;;;;;7.73;4.83;;;;;;;10.61;49.75;98675.94;238511;1200;23144;-70
2021/04/10 07:35:12;;;;;;;8.90;4.90;;;;;;;10.78;49.22;98662.80;238704;1200;24597;-69
2021/04/10 07:40:28;;;;;;;8.60;4.83;;;;;;;11.01;48.36;98671.05;238391;1200;23198;-68
2021/04/10 07:45:33;;;;;;;8.45;4.70;;;;;;;11.26;48.28;98671.68;238660;1200;23176;-68
2021/04/10 07:50:38;;;;;;;9.10;5.15;;;;;;;11.44;47.15;98676.20;238107;1200;23127;-69
2021/04/10 07:55:42;;;;;;;8.77;4.90;;;;;;;11.67;48.02;98672.81;238715;1200;23115;-69
2021/04/10 08:00:45;;;;;;;7.70;4.40;;;;;;;11.89;46.00;98667.56;238087;1197;23196;-68
2021/04/10 08:05:47;;;;;;;9.33;4.43;;;;;;;12.04;45.95;98663.78;238579;1199;23124;-70
2021/04/10 08:11:06;;;;;;;8.30;4.50;;;;;;;12.14;45.48;98670.83;238521;1200;23173;-68
2021/04/10 08:16:19;;;;;;;9.30;5.20;;;;;;;12.34;45.18;98661.56;238625;1197;23142;-70
2021/04/10 08:21:28;;;;;;;9.70;5.20;;;;;;;12.63;46.22;98663.86;238636;1200;23115;-70
2021/04/10 08:26:31;;;;;;;8.20;4.80;;;;;;;12.90;44.91;98662.15;238277;1200;23160;-69
2021/04/10 08:31:33;;;;;;;7.45;4.25;;;;;;;13.15;44.60;98671.48;238332;1199;23146;-69
2021/04/10 08:36:40;;;;;;;10.10;4.40;;;;;;;13.35;42.73;98664.80;238632;1200;23266;-70
2021/04/10 08:41:44;;;;;;;7.70;3.80;;;;;;;13.55;40.83;98667.27;238631;1203;25008;-69
2021/04/10 08:46:47;;;;;;;7.35;3.70;;;;;;;13.67;41.38;98676.34;238741;1200;23177;-69
2021/04/10 08:51:56;;;;;;;6.40;3.80;;;;;;;13.77;41.04;98663.72;238628;1199;23145;-70
2021/04/10 08:57:05;;;;;;;7.70;3.90;;;;;;;13.95;40.83;98659.96;238583;1198;23212;-69
2021/04/10 09:02:15;;;;;;;10.57;4.30;;;;;;;14.16;41.81;98667.45;238576;1199;23173;-68
2021/04/10 09:07:17;;;;;;;5.95;3.80;;;;;;;14.35;39.43;98664.45;238600;1199;24821;-69
2021/04/10 09:12:25;;;;;;;5.67;3.77;;;;;;;14.55;40.17;98665.75;238581;1199;27323;-70
2021/04/10 09:17:54;;;;;;;9.90;4.20;;;;;;;14.69;39.71;98652.14;238552;1200;23360;-68
2021/04/10 09:22:56;;;;;;;6.60;4.25;;;;;;;14.85;39.39;98663.22;238615;1200;23130;-70
2021/04/10 09:28:06;;;;;;;8.00;4.30;;;;;;;14.98;39.22;98661.45;238345;1202;23155;-69
2021/04/10 09:33:32;;;;;;;4.80;3.55;;;;;;;15.03;37.89;98666.68;238698;1202;23121;-70
2021/04/10 09:38:42;;;;;;;7.70;4.50;;;;;;;15.02;38.88;98655.08;238521;1200;23177;-69
2021/04/10 09:44:05;;;;;;;8.70;4.00;;;;;;;15.14;38.88;98649.04;238728;1199;23728;-70
2021/04/10 09:49:08;;;;;;;6.00;3.90;;;;;;;15.32;39.35;98647.08;239065;1199;23257;-70
2021/04/10 09:54:13;;;;;;;7.67;4.20;;;;;;;15.48;37.33;98649.25;238707;1200;23131;-69
2021/04/10 09:59:16;;;;;;;5.70;4.20;;;;;;;15.52;38.03;98653.67;238634;1200;23131;-70
2021/04/10 10:04:18;;;;;;;6.60;4.40;;;;;;;15.69;39.24;98644.70;238324;1199;23260;-70
2021/04/10 10:09:26;;;;;;;8.05;3.95;;;;;;;15.96;38.93;98639.19;238704;1200;23289;-69
2021/04/10 10:14:45;;;;;;;5.85;4.25;;;;;;;16.20;36.46;98649.36;238526;1200;27387;-70
2021/04/10 10:19:48;;;;;;;4.50;2.97;;;;;;;16.30;34.49;98648.17;238448;1200;23131;-69
2021/04/10 10:25:04;;;;;;;3.80;3.05;;;;;;;16.29;35.51;98650.09;238676;1199;23574;-69
2021/04/10 10:30:21;;;;;;;4.60;3.30;;;;;;;16.45;34.63;98644.88;238619;1200;23138;-70
2021/04/10 10:35:25;;;;;;;4.35;2.80;;;;;;;16.60;35.17;98636.16;238648;1199;23099;-70
2021/04/10 10:40:28;;;;;;;4.10;3.30;;;;;;;16.75;33.06;98640.17;238750;1200;23109;-69
2021/04/10 10:45:48;;;;;;;3.45;2.65;;;;;;;16.92;32.12;98649.28;238702;1200;23124;-70
2021/04/10 10:51:02;;;;;;;4.70;3.00;;;;;;;17.18;32.94;98654.44;238818;1200;23136;-70
2021/04/10 10:56:04;;;;;;;3.85;3.20;;;;;;;17.57;33.74;98652.23;238506;1200;23135;-71
2021/04/10 11:01:20;;;;;;;5.00;3.23;;;;;;;17.86;33.46;98644.20;239487;1199;23198;-69
2021/04/10 11:06:26;;;;;;;4.30;3.10;;;;;;;18.21;32.81;98644.52;238480;1200;27224;-70
2021/04/10 11:11:37;;;;;;;3.80;2.70;;;;;;;18.48;32.08;98647.61;238400;1199;27346;-71
2021/04/10 11:16:44;;;;;;;4.00;2.60;;;;;;;18.83;32.83;98646.24;239338;1203;23158;-71
2021/04/10 11:21:50;;;;;;;3.60;3.10;;;;;;;19.08;32.52;98639.59;239137;1200;23288;-70
2021/04/10 11:26:55;;;;;;;7.50;4.40;;;;;;;19.19;31.29;98647.22;238302;1202;25981;-70
2021/04/10 11:32:15;;;;;;;4.25;2.90;;;;;;;19.22;29.72;98641.86;238642;1200;23134;-72
2021/04/10 11:37:20;;;;;;;6.50;4.20;;;;;;;19.18;30.36;98635.58;239450;1202;26243;-71
2021/04/10 11:42:28;;;;;;;5.15;2.70;;;;;;;19.40;31.06;98634.16;239780;1200;23145;-71
2021/04/10 11:47:33;;;;;;;4.90;3.10;;;;;;;19.45;30.73;98627.70;239483;1200;23328;-71
2021/04/10 11:52:36;;;;;;;4.30;2.90;;;;;;;19.59;29.50;98627.25;239338;1198;23128;-71
2021/04/10 11:57:41;;;;;;;3.80;2.45;;;;;;;19.42;29.49;98614.80;239187;1200;23232;-70
2021/04/10 12:02:47;;;;;;;4.00;2.90;;;;;;;19.26;29.64;98636.53;239331;1200;23136;-70
2021/04/10 12:08:06;;;;;;;4.40;3.20;;;;;;;18.94;30.12;98626.44;238792;1202;23147;-71
2021/04/10 12:13:10;;;;;;;5.40;2.80;;;;;;;18.86;30.86;98631.97;238832;1197;23176;-71
2021/04/10 12:18:13;;;;;;;5.87;3.33;;;;;;;18.95;30.69;98621.79;239494;1200;24309;-71
2021/04/10 12:23:16;;;;;;;4.70;2.80;;;;;;;19.16;29.40;98616.12;239410;1200;23135;-70
2021/04/10 12:28:20;;;;;;;5.30;2.90;;;;;;;19.18;30.40;98616.57;239421;1199;23268;-71
2021/04/10 12:33:22;;;;;;;4.80;3.35;;;;;;;19.11;29.83;98622.60;239374;1200;23289;-74
2021/04/10 12:38:25;;;;;;;4.00;2.77;;;;;;;19.14;29.80;98615.69;239186;1200;23129;-70
2021/04/10 12:43:29;;;;;;;3.95;2.70;;;;;;;19.12;30.17;98610.59;239374;1200;25971;-71
2021/04/10 12:48:31;;;;;;;2.70;2.30;;;;;;;19.14;28.99;98607.55;239516;1202;23122;-71
2021/04/10 12:53:34;;;;;;;4.80;2.87;;;;;;;19.12;30.28;98598.95;239197;1199;23455;-70
2021/04/10 12:58:36;;;;;;;5.50;3.70;;;;;;;19.21;30.74;98610.44;239240;1199;23121;-71
2021/04/10 13:03:39;;;;;;;6.75;4.95;;;;;;;19.35;30.21;98603.77;238902;1200;23193;-70
2021/04/10 13:08:42;;;;;;;3.40;2.50;;;;;;;19.38;30.02;98600.38;238426;1199;23127;-70
2021/04/10 13:13:44;;;;;;;3.05;2.15;;;;;;;19.46;29.08;98604.81;239194;1203;23138;-71
2021/04/10 13:18:47;;;;;;;3.90;2.20;;;;;;;19.52;29.76;98608.05;239042;1200;23233;-71
2021/04/10 13:23:49;;;;;;;4.55;2.40;;;;;;;19.60;29.44;98605.16;239230;1200;23142;-70
2021/04/10 13:28:52;;;;;;;4.00;2.30;;;;;;;19.70;29.13;98611.18;238709;1200;23239;-70
2021/04/10 13:33:54;;;;;;;4.50;2.70;;;;;;;19.67;29.92;98609.98;238607;1200;23121;-70
2021/04/10 13:38:57;;;;;;;4.13;2.80;;;;;;;19.77;29.40;98603.22;239347;1199;23133;-72
2021/04/10 13:44:00;;;;;;;3.50;2.50;;;;;;;19.59;29.40;98600.09;239129;1202;23159;-69
2021/04/10 13:49:04;;;;;;;2.90;2.25;;;;;;;19.61;29.68;98603.22;238494;1200;23158;-70
2021/04/10 13:54:07;;;;;;;3.85;2.45;;;;;;;19.32;29.51;98599.81;239356;1200;23133;-70
2021/04/10 13:59:10;;;;;;;4.40;2.70;;;;;;;19.13;29.57;98612.17;239096;1198;23276;-70
2021/04/10 14:04:51;;;;;;;4.00;2.50;;;;;;;19.03;29.63;98611.89;238594;1202;23311;-69
2021/04/10 14:09:54;;;;;;;3.00;2.40;;;;;;;19.00;29.82;98612.59;238332;1202;23095;-70
2021/04/10 14:14:57;;;;;;;3.13;2.70;;;;;;;19.09;29.43;98613.23;238831;1200;23292;-70
2021/04/10 14:20:00;;;;;;;5.37;3.43;;;;;;;19.11;29.41;98610.94;239546;1202;26029;-71
2021/04/10 14:25:04;;;;;;;3.17;1.93;;;;;;;19.10;29.22;98617.53;238809;1200;23405;-71
2021/04/10 14:30:14;;;;;;;4.30;2.75;;;;;;;19.08;28.61;98608.92;238741;1200;23115;-70
2021/04/10 14:35:24;;;;;;;2.40;2.20;;;;;;;19.12;28.43;98604.38;239423;1200;23270;-70
2021/04/10 14:40:27;;;;;;;3.35;2.30;;;;;;;19.23;29.66;98623.66;238846;1200;23118;-70
2021/04/10 14:45:31;;;;;;;4.25;2.55;;;;;;;19.28;29.80;98615.27;238707;1199;23141;-70
2021/04/10 14:50:34;;;;;;;4.55;2.75;;;;;;;19.16;29.88;98613.41;238281;1200;23092;-71
2021/04/10 14:55:37;;;;;;;3.70;2.80;;;;;;;19.03;30.30;98609.98;239138;1200;23128;-72
2021/04/10 15:00:40;;;;;;;4.50;2.90;;;;;;;18.83;28.98;98606.34;239217;1199;23107;-71
2021/04/10 15:05:42;;;;;;;5.30;2.80;;;;;;;18.68;30.21;98623.34;239202;1200;23134;-71
2021/04/10 15:10:45;;;;;;;4.65;3.10;;;;;;;18.60;30.08;98611.52;238691;1202;23560;-72
2021/04/10 15:15:48;;;;;;;4.53;3.03;;;;;;;18.55;29.97;98604.44;238399;1198;23320;-71
2021/04/10 15:20:52;;;;;;;3.85;2.90;;;;;;;18.37;29.32;98612.07;239139;1203;23148;-70
2021/04/10 15:25:54;;;;;;;5.10;2.70;;;;;;;18.25;29.89;98612.88;239601;1200;26012;-73
2021/04/10 15:31:03;;;;;;;4.65;2.95;;;;;;;18.04;29.79;98614.98;239473;1199;23125;-73
2021/04/10 15:36:07;;;;;;;5.40;3.25;;;;;;;17.90;30.90;98610.66;239338;1203;26249;-72
2021/04/10 15:41:12;;;;;;;4.35;3.10;;;;;;;17.79;31.31;98612.27;239205;1199;23170;-72
2021/04/10 15:46:15;;;;;;;3.50;3.20;;;;;;;17.72;31.57;98617.47;239082;1199;23133;-74
2021/04/10 15:51:18;;;;;;;3.80;2.85;;;;;;;17.56;31.64;98610.02;239079;1200;23148;-73
2021/04/10 15:56:21;;;;;;;4.70;2.75;;;;;;;17.38;31.20;98605.96;239349;1202;23260;-73
2021/04/10 16:01:24;;;;;;;5.30;2.70;;;;;;;17.29;31.97;98611.45;239436;1200;23201;-73
2021/04/10 16:06:28;;;;;;;3.90;2.70;;;;;;;17.20;31.59;98605.38;239315;1200;25981;-73
2021/04/10 16:11:31;;;;;;;4.00;2.70;;;;;;;17.15;32.29;98611.77;239395;1202;26221;-73
2021/04/10 16:16:34;;;;;;;5.05;3.10;;;;;;;17.10;32.05;98604.67;239614;1198;23125;-73
2021/04/10 16:21:38;;;;;;;5.40;3.05;;;;;;;17.04;32.10;98605.22;239343;1197;23121;-72
2021/04/10 16:26:40;;;;;;;4.30;2.70;;;;;;;17.02;32.01;98600.14;239277;1200;23118;-73
2021/04/10 16:31:43;;;;;;;6.35;3.30;;;;;;;17.06;31.86;98600.28;239591;1199;23580;-72
2021/04/10 16:36:48;;;;;;;6.55;4.20;;;;;;;17.06;32.39;98608.39;239500;1200;23122;-73
2021/04/10 16:41:51;;;;;;;8.40;5.30;;;;;;;16.91;32.37;98613.33;239369;1199;23130;-72
2021/04/10 16:46:53;;;;;;;8.00;5.40;;;;;;;16.73;32.80;98619.98;239467;1200;23280;-73
2021/04/10 16:51:56;;;;;;;7.40;4.70;;;;;;;16.50;32.89;98620.36;239424;1198;23115;-73
2021/04/10 16:56:59;;;;;;;10.90;4.80;;;;;;;16.30;33.17;98616.55;239664;1200;23114;-72
2021/04/10 17:02:02;;;;;;;7.40;5.25;;;;;;;16.11;33.57;98616.22;239587;1199;23217;-72
2021/04/10 17:07:07;;;;;;;14.87;6.97;;;;;;;15.88;33.61;98620.02;239766;1199;23204;-73
2021/04/10 17:12:11;;;;;;;13.90;7.85;;;;;;;15.67;34.23;98619.13;239563;1197;23125;-72
2021/04/10 17:17:13;;;;;;;12.50;8.00;;;;;;;15.46;34.45;98630.69;239886;1200;23423;-73
2021/04/10 17:22:16;;;;;;;13.15;7.95;;;;;;;15.25;34.88;98629.80;239665;1199;23146;-73
2021/04/10 17:27:19;;;;;;;14.00;8.10;;;;;;;15.06;35.26;98625.57;239780;1199;23122;-73
2021/04/10 17:32:22;;;;;;;12.45;7.43;;;;;;;14.89;35.79;98637.20;239602;1199;23122;-73
2021/04/10 17:37:24;;;;;;;12.10;8.10;;;;;;;14.70;36.11;98634.83;239379;1200;23115;-72
2021/04/10 17:42:27;;;;;;;12.10;8.30;;;;;;;14.47;35.98;98634.20;239551;1199;23288;-72
2021/04/10 17:47:30;;;;;;;17.40;9.40;;;;;;;14.22;36.36;98647.33;239631;1198;23115;-73
2021/04/10 17:52:32;;;;;;;16.30;9.30;;;;;;;13.94;36.86;98646.81;239755;1200;23132;-73
2021/04/10 17:57:35;;;;;;;15.33;8.20;;;;;;;13.70;37.23;98658.78;239610;1200;23118;-71
2021/04/10 18:02:38;;;;;;;18.05;9.65;;;;;;;13.45;37.56;98657.58;239522;1198;23704;-72
2021/04/10 18:07:41;;;;;;;23.60;10.30;;;;;;;13.24;38.02;98671.52;239596;1200;23462;-73
2021/04/10 18:12:44;;;;;;;14.80;10.00;;;;;;;13.03;38.81;98673.93;239578;1197;23120;-71
2021/04/10 18:17:46;;;;;;;21.10;12.00;;;;;;;12.88;39.19;98679.68;239639;1200;23165;-73
2021/04/10 18:22:51;;;;;;;23.87;14.17;;;;;;;12.70;39.08;98684.91;239612;1199;23178;-73
2021/04/10 18:27:55;;;;;;;27.10;15.10;;;;;;;12.52;39.44;98692.06;239753;1199;23231;-72
2021/04/10 18:32:58;;;;;;;26.35;15.40;;;;;;;12.37;39.44;98695.05;239669;1200;23614;-72
2021/04/10 18:38:00;;;;;;;35.55;18.40;;;;;;;12.22;39.73;98699.67;239648;1198;23117;-72
2021/04/10 18:43:05;;;;;;;31.80;19.40;;;;;;;12.08;40.35;98705.05;239770;1200;23121;-73
2021/04/10 18:48:08;;;;;;;40.07;23.47;;;;;;;11.94;40.49;98698.91;239731;1200;23144;-72
2021/04/10 18:53:10;;;;;;;53.70;29.70;;;;;;;11.79;40.64;98706.14;239553;1199;23173;-73
2021/04/10 18:58:17;;;;;;;49.23;28.07;;;;;;;11.68;40.61;98695.88;239694;1200;23127;-74
2021/04/10 19:03:22;;;;;;;44.10;24.97;;;;;;;11.66;41.08;98708.81;239675;1197;23117;-73
2021/04/10 19:08:26;;;;;;;49.15;25.65;;;;;;;11.80;41.10;98709.61;239621;1200;23114;-72
2021/04/10 19:13:32;;;;;;;40.90;23.20;;;;;;;11.92;40.92;98711.78;239656;1200;23811;-73
2021/04/10 19:18:36;;;;;;;35.30;20.23;;;;;;;11.87;40.91;98711.91;239656;1199;23122;-72
2021/04/10 19:23:38;;;;;;;38.10;18.90;;;;;;;11.73;41.34;98725.31;239708;1199;23257;-73
2021/04/10 19:28:42;;;;;;;50.03;25.90;;;;;;;11.57;41.20;98738.19;239546;1199;23114;-73
2021/04/10 19:33:47;;;;;;;52.90;26.35;;;;;;;11.38;41.50;98741.73;239781;1198;23204;-73
2021/04/10 19:38:52;;;;;;;44.30;24.90;;;;;;;11.21;42.12;98741.50;239769;1200;23607;-73
2021/04/10 19:43:59;;;;;;;42.70;23.90;;;;;;;11.03;42.28;98743.91;239556;1200;26319;-72
2021/04/10 19:49:04;;;;;;;43.10;22.75;;;;;;;10.86;42.49;98755.15;239658;1198;23115;-73
2021/04/10 19:54:12;;;;;;;43.97;22.20;;;;;;;10.70;42.87;98751.91;239574;1200;23182;-72
2021/04/10 19:59:20;;;;;;;37.43;19.73;;;;;;;10.57;42.90;98755.29;239688;1200;23158;-73
2021/04/10 20:04:25;;;;;;;33.60;18.40;;;;;;;10.46;43.61;98753.83;239863;1200;23585;-72
2021/04/10 20:09:28;;;;;;;30.87;16.13;;;;;;;10.38;43.90;98755.25;239553;1200;23152;-73
2021/04/10 20:14:31;;;;;;;29.37;16.70;;;;;;;10.32;44.19;98759.84;239622;1200;23298;-73
2021/04/10 20:19:34;;;;;;;30.45;15.90;;;;;;;10.21;44.42;98759.20;239702;1199;23157;-72
2021/04/10 20:24:37;;;;;;;31.77;17.30;;;;;;;10.07;44.67;98758.27;239577;1200;22744;-72
2021/04/10 20:29:41;;;;;;;31.20;16.75;;;;;;;9.94;45.23;98773.13;239609;1200;23135;-73
2021/04/10 20:34:44;;;;;;;33.65;17.70;;;;;;;9.81;45.89;98787.16;239703;1200;23131;-73
2021/04/10 20:39:46;;;;;;;31.50;17.10;;;;;;;9.63;45.97;98786.81;239559;1201;23224;-73
2021/04/10 20:44:49;;;;;;;30.67;17.77;;;;;;;9.45;46.44;98790.19;239653;1198;26403;-73
2021/04/10 20:49:53;;;;;;;32.90;18.33;;;;;;;9.25;46.51;98784.71;239919;1199;23373;-72
2021/04/10 20:54:55;;;;;;;35.97;17.80;;;;;;;9.10;47.05;98792.05;239588;1199;23584;-72
2021/04/10 20:59:58;;;;;;;30.80;17.70;;;;;;;8.97;47.29;98799.61;239606;1199;23260;-72
2021/04/10 21:05:02;;;;;;;31.95;17.60;;;;;;;8.87;47.88;98794.31;239491;1199;23138;-72
2021/04/10 21:10:05;;;;;;;34.60;17.80;;;;;;;8.78;48.20;98801.33;239528;1199;23352;-72
2021/04/10 21:15:09;;;;;;;35.90;20.13;;;;;;;8.71;48.35;98796.28;239606;1199;26123;-72
2021/04/10 21:20:13;;;;;;;40.35;20.40;;;;;;;8.62;48.90;98795.25;239464;1198;24934;-72
2021/04/10 21:25:16;;;;;;;62.87;32.60;;;;;;;8.51;49.52;98799.85;239634;1200;23356;-72
2021/04/10 21:30:19;;;;;;;68.60;35.27;;;;;;;8.35;49.57;98786.54;239397;1200;23096;-73
2021/04/10 21:35:23;;;;;;;70.35;35.00;;;;;;;8.23;49.43;98789.50;239590;1200;23128;-73
2021/04/10 21:40:26;;;;;;;68.40;33.00;;;;;;;8.12;49.52;98776.48;239596;1200;23141;-73
2021/04/10 21:45:28;;;;;;;62.60;31.50;;;;;;;8.01;49.46;98773.83;239625;1198;23263;-72
2021/04/10 21:50:31;;;;;;;59.80;29.07;;;;;;;7.95;49.81;98769.58;239438;1200;23150;-72
2021/04/10 21:55:34;;;;;;;57.40;28.90;;;;;;;7.91;49.65;98768.52;239512;1199;23125;-71
2021/04/10 22:00:46;;;;;;;58.80;29.95;;;;;;;7.92;49.94;98766.64;239516;1200;23118;-72
2021/04/10 22:05:53;;;;;;;53.25;28.00;;;;;;;7.91;50.34;98771.19;239620;1202;23136;-72
2021/04/10 22:10:56;;;;;;;53.47;27.30;;;;;;;7.90;50.23;98769.59;239466;1200;23147;-72
2021/04/10 22:15:59;;;;;;;51.67;25.73;;;;;;;7.88;49.90;98761.07;239505;1200;23141;-72
2021/04/10 22:21:02;;;;;;;64.50;33.30;;;;;;;7.92;50.73;98775.47;239615;1199;23126;-72
2021/04/10 22:26:05;;;;;;;92.25;44.65;;;;;;;7.80;51.09;98781.08;239617;1199;25013;-72
2021/04/10 22:31:09;;;;;;;95.05;46.15;;;;;;;7.62;51.13;98774.43;239701;1200;23118;-72
2021/04/10 22:36:13;;;;;;;83.95;40.10;;;;;;;7.45;51.15;98769.39;239663;1199;23125;-73
2021/04/10 22:41:17;;;;;;;91.65;41.40;;;;;;;7.35;51.43;98759.53;239602;1200;23292;-73
2021/04/10 22:46:20;;;;;;;77.75;35.65;;;;;;;7.28;51.86;98756.34;239451;1198;23233;-74
2021/04/10 22:51:22;;;;;;;73.17;35.77;;;;;;;7.25;51.99;98750.77;239472;1202;23122;-73
2021/04/10 22:56:25;;;;;;;62.45;31.55;;;;;;;7.21;51.51;98744.36;239658;1199;23444;-73
2021/04/10 23:01:28;;;;;;;68.03;32.17;;;;;;;7.18;51.65;98745.69;239767;1200;23130;-73
2021/04/10 23:06:31;;;;;;;76.35;36.25;;;;;;;7.13;52.05;98740.35;239572;1199;23145;-72
2021/04/10 23:11:34;;;;;;;79.80;38.15;;;;;;;7.06;52.42;98745.94;239575;1200;23122;-72
2021/04/10 23:16:36;;;;;;;78.20;37.33;;;;;;;7.00;52.82;98739.02;239751;1199;23383;-72
2021/04/10 23:21:39;;;;;;;77.85;37.95;;;;;;;6.93;52.62;98738.48;239634;1200;23144;-73
2021/04/10 23:26:42;;;;;;;75.70;37.23;;;;;;;6.80;52.80;98735.27;239732;1200;23110;-72
2021/04/10 23:31:44;;;;;;;78.55;35.00;;;;;;;6.74;52.67;98722.20;239498;1200;23339;-72